Time;durP1;ratioP1;P1;durP2;ratioP2;P2;SDS_P1;SDS_P2;PMS_P1;PMS_P2;Temp;Humidity;BMP_temperature;BMP_pressure;BME280_temperature;BME280_humidity;BME280_pressure;Samples;Min_cycle;Max_cycle;Signal;HPM_P1;HPM_P2
2022/01/31 00:00:12;;;;;;;9.65;5.18;;;;;;;-4.15;100.00;93319.53;2106759;28;20093;-79
2022/01/31 00:01:15;;;;;;;12.27;5.90;;;;;;;-4.19;100.00;93315.25;2119978;27;20034;-81
2022/01/31 00:02:16;;;;;;;10.88;4.97;;;;;;;-4.18;100.00;93304.50;2106698;28;20384;-82
2022/01/31 00:03:17;;;;;;;15.18;5.70;;;;;;;-4.01;100.00;93300.25;2108950;28;20091;-80
2022/01/31 00:04:18;;;;;;;12.45;5.60;;;;;;;-4.09;100.00;93299.97;2106566;28;20024;-83
2022/01/31 00:05:19;;;;;;;12.88;5.60;;;;;;;-4.20;100.00;93288.41;2111946;27;20398;-82
2022/01/31 00:06:20;;;;;;;15.75;5.85;;;;;;;-4.14;100.00;93284.50;2103849;28;20717;-81
2022/01/31 00:07:21;;;;;;;11.65;5.03;;;;;;;-4.22;100.00;93274.13;2082058;28;20033;-83
2022/01/31 00:08:24;;;;;;;10.90;5.03;;;;;;;-4.10;100.00;93272.34;2081775;28;20529;-80
2022/01/31 00:09:26;;;;;;;14.73;6.32;;;;;;;-4.01;100.00;93266.31;2090792;28;20028;-80
2022/01/31 00:10:29;;;;;;;11.27;5.25;;;;;;;-3.96;100.00;93266.88;2098401;28;20082;-81
2022/01/31 00:11:30;;;;;;;12.98;5.15;;;;;;;-4.02;100.00;93262.19;2094656;28;20048;-81
2022/01/31 00:12:37;;;;;;;13.55;5.82;;;;;;;-4.06;100.00;93268.03;2106680;27;20020;-82
2022/01/31 00:13:43;;;;;;;11.32;5.55;;;;;;;-4.11;100.00;93270.84;2115969;27;20102;-80
2022/01/31 00:14:47;;;;;;;17.85;5.88;;;;;;;-4.00;100.00;93268.59;2115786;27;20045;-81
2022/01/31 00:15:54;;;;;;;13.57;5.00;;;;;;;-3.93;100.00;93258.41;2107113;28;20416;-83
2022/01/31 00:16:55;;;;;;;14.38;5.95;;;;;;;-4.10;100.00;93261.16;2104629;28;20058;-83
2022/01/31 00:17:56;;;;;;;13.93;6.45;;;;;;;-4.20;100.00;93251.88;2098490;28;20150;-83
2022/01/31 00:18:59;;;;;;;9.77;4.45;;;;;;;-4.09;100.00;93258.22;2090030;28;20124;-81
2022/01/31 00:20:00;;;;;;;12.65;5.20;;;;;;;-4.13;100.00;93252.09;2090333;28;20162;-81
2022/01/31 00:21:01;;;;;;;9.57;4.50;;;;;;;-4.07;100.00;93242.25;2081728;28;20509;-81
2022/01/31 00:22:05;;;;;;;12.95;5.55;;;;;;;-4.09;100.00;93247.78;2091762;28;20732;-82
2022/01/31 00:23:05;;;;;;;13.75;4.90;;;;;;;-4.02;100.00;93249.13;2098457;28;20071;-80
2022/01/31 00:24:06;;;;;;;14.73;5.40;;;;;;;-3.89;100.00;93248.09;2089974;28;20501;-82
2022/01/31 00:25:08;;;;;;;8.93;5.53;;;;;;;-3.86;100.00;93250.81;2089861;28;20040;-81
2022/01/31 00:26:09;;;;;;;10.35;5.07;;;;;;;-3.76;100.00;93254.09;2098459;28;20481;-83
2022/01/31 00:27:10;;;;;;;14.13;5.70;;;;;;;-3.89;100.00;93251.44;2105567;28;20024;-80
2022/01/31 00:28:11;;;;;;;15.73;5.70;;;;;;;-3.83;100.00;93263.22;2089779;28;20103;-81
2022/01/31 00:29:12;;;;;;;11.13;4.93;;;;;;;-3.80;100.00;93259.22;2081743;28;20482;-80
2022/01/31 00:30:13;;;;;;;12.10;5.43;;;;;;;-3.90;100.00;93260.38;2089807;28;20143;-83
2022/01/31 00:31:17;;;;;;;12.13;4.88;;;;;;;-3.77;100.00;93247.38;2101893;28;20027;-84
2022/01/31 00:32:18;;;;;;;11.93;5.20;;;;;;;-3.82;100.00;93245.69;2106690;28;20785;-81
2022/01/31 00:33:18;;;;;;;10.90;5.10;;;;;;;-3.93;100.00;93242.72;2097900;28;20024;-81
2022/01/31 00:34:19;;;;;;;15.25;5.28;;;;;;;-4.05;100.00;93225.16;2094727;28;20053;-80
2022/01/31 00:35:20;;;;;;;11.68;5.40;;;;;;;-4.13;100.00;93225.25;2086380;28;20140;-81
2022/01/31 00:36:21;;;;;;;10.77;4.85;;;;;;;-4.03;100.00;93224.09;2090936;28;20047;-82
2022/01/31 00:37:22;;;;;;;14.75;5.05;;;;;;;-3.76;100.00;93223.53;2098023;28;20095;-82
2022/01/31 00:38:23;;;;;;;11.55;4.75;;;;;;;-3.60;100.00;93224.44;2089597;28;20021;-82
2022/01/31 00:39:24;;;;;;;13.07;5.20;;;;;;;-3.56;100.00;93237.59;2096060;28;20030;-82
2022/01/31 00:40:25;;;;;;;13.63;4.75;;;;;;;-3.49;100.00;93239.69;2114927;28;20449;-82
2022/01/31 00:41:26;;;;;;;9.88;5.50;;;;;;;-3.55;100.00;93247.00;2106308;28;20016;-80
2022/01/31 00:42:29;;;;;;;9.80;4.70;;;;;;;-3.74;100.00;93250.06;2106516;28;20366;-79
2022/01/31 00:43:30;;;;;;;18.17;5.80;;;;;;;-3.84;100.00;93242.66;2107029;28;20046;-79
2022/01/31 00:44:41;;;;;;;11.68;4.88;;;;;;;-3.82;100.00;93235.25;2114788;28;20028;-82
2022/01/31 00:45:46;;;;;;;9.95;5.13;;;;;;;-3.86;100.00;93252.66;2112086;28;20016;-80
2022/01/31 00:46:53;;;;;;;12.88;5.20;;;;;;;-3.88;100.00;93255.59;2107558;28;20020;-81
2022/01/31 00:48:02;;;;;;;11.00;4.75;;;;;;;-3.78;100.00;93271.94;2107033;28;20144;-83
2022/01/31 00:49:03;;;;;;;14.07;5.80;;;;;;;-3.84;100.00;93274.75;2108848;27;20129;-80
2022/01/31 00:50:07;;;;;;;12.07;4.68;;;;;;;-3.82;100.00;93263.97;2101346;28;20135;-81
2022/01/31 00:51:09;;;;;;;10.23;5.13;;;;;;;-3.97;100.00;93259.34;2103323;27;20036;-80
2022/01/31 00:52:10;;;;;;;12.73;4.97;;;;;;;-3.90;100.00;93257.75;2106427;28;20111;-83
2022/01/31 00:53:11;;;;;;;12.40;5.07;;;;;;;-3.81;100.00;93255.84;2101899;28;20477;-82
2022/01/31 00:54:12;;;;;;;9.30;5.10;;;;;;;-3.84;100.00;93256.47;2114682;28;20123;-79
2022/01/31 00:55:13;;;;;;;10.20;5.22;;;;;;;-4.02;100.00;93259.56;2114659;28;20019;-82
2022/01/31 00:56:14;;;;;;;11.10;5.35;;;;;;;-4.11;100.00;93251.81;2123171;27;20023;-80
2022/01/31 00:57:15;;;;;;;14.98;4.93;;;;;;;-4.01;100.00;93242.81;2112669;28;20023;-82
2022/01/31 00:58:16;;;;;;;11.10;5.57;;;;;;;-4.00;100.00;93242.47;2083804;28;20524;-82
2022/01/31 00:59:18;;;;;;;12.50;5.70;;;;;;;-3.88;100.00;93245.13;2081433;28;20021;-81
2022/01/31 01:00:19;;;;;;;9.82;4.90;;;;;;;-3.68;100.00;93255.88;2090037;28;20485;-83
2022/01/31 01:01:20;;;;;;;10.75;5.15;;;;;;;-3.79;100.00;93245.06;2097550;28;20048;-81
2022/01/31 01:02:22;;;;;;;12.48;4.85;;;;;;;-4.01;100.00;93243.56;2114755;28;20019;-80
2022/01/31 01:03:23;;;;;;;10.80;5.10;;;;;;;-3.98;100.00;93239.56;2106140;28;20016;-81
2022/01/31 01:04:24;;;;;;;11.40;4.65;;;;;;;-4.07;100.00;93250.09;2096799;28;20091;-79
2022/01/31 01:05:25;;;;;;;8.18;4.65;;;;;;;-4.00;100.00;93237.25;2106422;28;20118;-82
2022/01/31 01:06:27;;;;;;;11.63;4.93;;;;;;;-3.99;100.00;93240.66;2106137;28;20028;-80
2022/01/31 01:07:28;;;;;;;12.15;4.45;;;;;;;-4.09;100.00;93239.94;2098184;28;20056;-80
2022/01/31 01:08:28;;;;;;;10.68;5.13;;;;;;;-4.00;100.00;93245.09;2098243;28;20390;-81
2022/01/31 01:09:29;;;;;;;10.55;5.35;;;;;;;-3.93;100.00;93231.53;2106080;28;20028;-83
2022/01/31 01:10:30;;;;;;;11.40;5.25;;;;;;;-3.99;100.00;93230.22;2089512;28;20540;-82
2022/01/31 01:11:31;;;;;;;9.65;4.60;;;;;;;-4.06;100.00;93234.09;2094637;28;20114;-79
2022/01/31 01:12:32;;;;;;;9.55;4.47;;;;;;;-4.00;100.00;93221.59;2097646;28;20028;-82
2022/01/31 01:13:33;;;;;;;11.32;4.68;;;;;;;-4.16;100.00;93228.53;2089511;28;20020;-82
2022/01/31 01:14:35;;;;;;;13.05;5.45;;;;;;;-4.12;100.00;93234.63;2089417;28;20531;-81
2022/01/31 01:15:36;;;;;;;10.65;4.43;;;;;;;-4.06;100.00;93230.72;2107391;27;20408;-82
2022/01/31 01:16:37;;;;;;;14.05;5.13;;;;;;;-4.03;100.00;93226.72;2122883;27;20046;-84
2022/01/31 01:17:38;;;;;;;10.82;4.80;;;;;;;-4.14;100.00;93218.50;2114670;28;20034;-83
2022/01/31 01:18:38;;;;;;;10.75;5.00;;;;;;;-4.15;100.00;93220.34;2106046;28;20039;-82
2022/01/31 01:19:39;;;;;;;10.48;5.07;;;;;;;-4.02;100.00;93221.16;2100763;28;20441;-83
2022/01/31 01:20:42;;;;;;;9.45;4.97;;;;;;;-3.94;100.00;93220.31;2089408;28;20036;-82
2022/01/31 01:21:43;;;;;;;10.30;5.35;;;;;;;-3.87;100.00;93225.78;2089883;28;20021;-81
2022/01/31 01:22:45;;;;;;;10.65;4.57;;;;;;;-3.92;100.00;93215.53;2100264;28;20558;-80
2022/01/31 01:23:46;;;;;;;11.13;5.03;;;;;;;-3.81;100.00;93208.06;2101705;28;20050;-82
2022/01/31 01:24:48;;;;;;;12.15;4.70;;;;;;;-3.94;100.00;93214.34;2092369;28;20031;-80
2022/01/31 01:25:50;;;;;;;13.35;4.95;;;;;;;-3.92;100.00;93212.94;2095233;28;20012;-80
2022/01/31 01:26:51;;;;;;;10.57;4.82;;;;;;;-3.94;100.00;93185.63;2104719;28;20067;-80
2022/01/31 01:27:54;;;;;;;9.45;4.88;;;;;;;-3.94;100.00;93175.19;2099412;28;20354;-80
2022/01/31 01:28:55;;;;;;;10.20;5.13;;;;;;;-3.93;100.00;93161.03;2104810;28;20016;-82
2022/01/31 01:29:56;;;;;;;10.98;4.60;;;;;;;-3.86;100.00;93153.44;2105759;28;20358;-82
2022/01/31 01:30:58;;;;;;;13.88;5.28;;;;;;;-3.92;100.00;93152.13;2106159;28;20374;-83
2022/01/31 01:31:59;;;;;;;11.88;4.95;;;;;;;-3.96;100.00;93152.00;2106261;28;20047;-82
2022/01/31 01:33:06;;;;;;;7.75;5.05;;;;;;;-3.85;100.00;93145.28;2109692;28;20461;-82
2022/01/31 01:34:07;;;;;;;13.65;5.13;;;;;;;-3.85;100.00;93142.69;2115687;27;20023;-79
2022/01/31 01:35:08;;;;;;;14.38;5.15;;;;;;;-3.80;100.00;93146.91;2105728;28;20027;-80
2022/01/31 01:36:09;;;;;;;9.30;4.75;;;;;;;-3.79;100.00;93143.22;2100663;28;20035;-82
2022/01/31 01:37:10;;;;;;;13.40;5.05;;;;;;;-3.65;100.00;93159.34;2097463;28;20166;-82
2022/01/31 01:38:15;;;;;;;9.40;3.95;;;;;;;-3.62;100.00;93171.00;2097825;28;20024;-82
2022/01/31 01:39:16;;;;;;;9.95;5.00;;;;;;;-3.65;100.00;93164.56;2090384;28;20441;-79
2022/01/31 01:40:17;;;;;;;9.35;4.65;;;;;;;-3.70;100.00;93154.31;2089067;28;20144;-81
2022/01/31 01:41:18;;;;;;;10.00;4.88;;;;;;;-3.77;100.00;93159.34;2099792;28;20039;-79
2022/01/31 01:42:19;;;;;;;10.18;4.75;;;;;;;-3.85;100.00;93155.72;2105814;28;20020;-81
2022/01/31 01:43:20;;;;;;;10.70;5.18;;;;;;;-3.84;100.00;93154.63;2105886;28;20110;-81
2022/01/31 01:44:39;;;;;;;11.77;5.20;;;;;;;-3.49;100.00;93156.09;2105927;28;20109;-80
2022/01/31 01:45:42;;;;;;;11.90;4.70;;;;;;;-3.43;100.00;93157.41;2091810;28;20024;-84
2022/01/31 01:46:43;;;;;;;11.15;5.20;;;;;;;-3.31;100.00;93157.41;2089879;28;20439;-82
2022/01/31 01:47:44;;;;;;;9.38;4.78;;;;;;;-3.41;100.00;93142.91;2089295;28;20443;-79
2022/01/31 01:48:45;;;;;;;15.98;5.60;;;;;;;-3.53;100.00;93142.91;2089325;28;20016;-82
2022/01/31 01:49:47;;;;;;;11.82;5.30;;;;;;;-3.62;100.00;93129.97;2097663;28;20026;-81
2022/01/31 01:50:48;;;;;;;9.85;4.80;;;;;;;-3.66;100.00;93125.72;2089299;28;20032;-82
2022/01/31 01:51:49;;;;;;;10.70;4.35;;;;;;;-3.64;100.00;93119.09;2098227;28;20021;-82
2022/01/31 01:52:52;;;;;;;8.70;4.75;;;;;;;-3.58;100.00;93107.31;2108268;28;20039;-83
2022/01/31 01:53:59;;;;;;;12.90;4.75;;;;;;;-3.43;100.00;93102.53;2099565;28;20111;-82
2022/01/31 01:55:01;;;;;;;15.02;4.70;;;;;;;-3.63;100.00;93110.16;2097607;28;20027;-80
2022/01/31 01:56:02;;;;;;;11.73;4.93;;;;;;;-3.52;100.00;93104.50;2081099;28;20118;-81
2022/01/31 01:57:04;;;;;;;9.35;5.10;;;;;;;-3.37;100.00;93112.44;2089591;28;20110;-83
2022/01/31 01:58:13;;;;;;;9.60;4.30;;;;;;;-3.43;100.00;93111.13;2105877;28;20031;-85
2022/01/31 01:59:14;;;;;;;19.50;5.07;;;;;;;-3.45;100.00;93112.56;2098691;28;20029;-81
2022/01/31 02:00:18;;;;;;;13.70;4.75;;;;;;;-3.55;100.00;93098.84;2097572;28;20094;-82
2022/01/31 02:01:19;;;;;;;11.98;4.60;;;;;;;-3.63;100.00;93097.09;2108734;28;20107;-82
2022/01/31 02:02:21;;;;;;;8.57;4.93;;;;;;;-3.62;100.00;93092.63;2104044;28;20024;-81
2022/01/31 02:03:22;;;;;;;11.18;4.65;;;;;;;-3.62;100.00;93093.41;2106078;28;20030;-81
2022/01/31 02:04:23;;;;;;;14.43;4.88;;;;;;;-3.61;100.00;93083.69;2105942;28;20024;-80
2022/01/31 02:05:24;;;;;;;11.45;5.05;;;;;;;-3.44;100.00;93074.88;2105886;28;20054;-80
2022/01/31 02:06:25;;;;;;;12.07;5.35;;;;;;;-3.48;100.00;93071.41;2105948;28;20035;-82
2022/01/31 02:07:26;;;;;;;9.60;4.65;;;;;;;-3.51;100.00;93077.28;2105773;28;20031;-80
2022/01/31 02:08:28;;;;;;;11.00;4.60;;;;;;;-3.38;100.00;93071.72;2114220;28;20452;-84
2022/01/31 02:10:50;;;;;;;;;;;;;;;-3.20;100.00;93080.09;2148846;27;20109;-82
2022/01/31 02:11:54;;;;;;;9.38;5.03;;;;;;;-3.30;100.00;93075.28;2130056;27;19911;-81
2022/01/31 02:12:55;;;;;;;14.48;4.93;;;;;;;-3.19;100.00;93081.59;2122572;27;20046;-82
2022/01/31 02:13:56;;;;;;;11.15;4.90;;;;;;;-3.14;100.00;93083.97;2121760;28;20023;-81
2022/01/31 02:14:58;;;;;;;9.10;4.97;;;;;;;-3.25;100.00;93075.06;2120937;27;20020;-79
2022/01/31 02:15:59;;;;;;;10.07;5.25;;;;;;;-3.14;100.00;93070.16;2130270;27;20018;-81
2022/01/31 02:17:00;;;;;;;14.95;5.32;;;;;;;-3.17;100.00;93063.72;2130032;27;20030;-82
2022/01/31 02:18:02;;;;;;;11.90;4.57;;;;;;;-3.10;100.00;93055.34;2130195;27;20412;-82
2022/01/31 02:19:03;;;;;;;8.48;4.30;;;;;;;-2.87;100.00;93048.50;2130270;27;20114;-82
2022/01/31 02:20:06;;;;;;;9.80;4.32;;;;;;;-2.91;100.00;93045.03;2121484;27;20023;-81
2022/01/31 02:21:09;;;;;;;12.23;4.72;;;;;;;-2.98;100.00;93038.84;2113712;27;20073;-84
2022/01/31 02:22:09;;;;;;;9.57;5.35;;;;;;;-2.95;100.00;93041.53;2110967;28;20028;-84
2022/01/31 02:23:12;;;;;;;11.35;4.32;;;;;;;-3.02;100.00;93035.38;2104665;28;20024;-81
2022/01/31 02:24:14;;;;;;;14.68;4.80;;;;;;;-2.88;100.00;93030.53;2122163;27;20031;-79
2022/01/31 02:25:15;;;;;;;12.88;4.68;;;;;;;-2.69;100.00;93017.56;2121314;27;20073;-82
2022/01/31 02:26:16;;;;;;;13.40;4.75;;;;;;;-2.46;100.00;93017.78;2113430;28;20028;-81
2022/01/31 02:27:27;;;;;;;14.70;4.60;;;;;;;-2.51;100.00;93012.78;2123821;27;20621;-83
2022/01/31 02:28:33;;;;;;;10.35;4.90;;;;;;;-2.33;100.00;93014.03;2121437;28;20408;-80
2022/01/31 02:29:34;;;;;;;18.20;5.43;;;;;;;-2.38;100.00;93014.25;2113897;28;20027;-81
2022/01/31 02:30:35;;;;;;;13.60;4.50;;;;;;;-2.41;100.00;93022.78;2104617;28;20028;-82
2022/01/31 02:31:36;;;;;;;12.93;4.35;;;;;;;-2.53;100.00;93005.28;2109165;28;20472;-81
2022/01/31 02:32:37;;;;;;;14.68;4.43;;;;;;;-2.52;100.00;92998.19;2114401;27;20026;-82
2022/01/31 02:33:38;;;;;;;11.90;4.32;;;;;;;-2.49;100.00;92989.69;2130126;27;20027;-82
2022/01/31 02:34:39;;;;;;;17.30;4.53;;;;;;;-2.36;100.00;92996.38;2121606;28;20034;-81
2022/01/31 02:35:39;;;;;;;19.48;5.47;;;;;;;-2.22;100.00;93001.19;2121513;28;20027;-82
2022/01/31 02:36:41;;;;;;;17.83;4.68;;;;;;;-2.06;100.00;92990.72;2113120;27;20051;-82
2022/01/31 02:37:42;;;;;;;14.00;5.07;;;;;;;-2.09;100.00;92980.91;2121365;27;20026;-83
2022/01/31 02:38:43;;;;;;;14.02;4.78;;;;;;;-2.08;100.00;92977.94;2121543;28;20024;-81
2022/01/31 02:39:44;;;;;;;19.30;4.63;;;;;;;-2.06;100.00;92972.38;2119073;27;20023;-82
2022/01/31 02:40:45;;;;;;;12.32;4.78;;;;;;;-1.95;100.00;92983.09;2121730;27;20075;-81
2022/01/31 02:41:48;;;;;;;18.50;4.88;;;;;;;-2.04;100.00;92984.03;2130214;27;20026;-79
2022/01/31 02:42:51;;;;;;;18.55;4.57;;;;;;;-1.66;100.00;92990.47;2119186;28;20031;-83
2022/01/31 02:43:54;;;;;;;13.63;4.20;;;;;;;-1.48;100.00;92984.88;2113181;28;20101;-84
2022/01/31 02:44:55;;;;;;;12.32;4.10;;;;;;;-1.64;100.00;92987.50;2119052;28;20038;-80
2022/01/31 02:46:05;;;;;;;13.88;4.60;;;;;;;-1.54;100.00;92990.38;2129890;27;20026;-80
2022/01/31 02:47:10;;;;;;;23.90;5.35;;;;;;;-1.22;100.00;92986.91;2114153;28;20067;-81
2022/01/31 02:48:14;;;;;;;16.33;5.32;;;;;;;-1.14;100.00;92993.78;2114129;27;20088;-82
2022/01/31 02:49:17;;;;;;;13.73;4.47;;;;;;;-1.20;100.00;92993.28;2121740;27;20104;-81
2022/01/31 02:50:19;;;;;;;12.18;4.40;;;;;;;-1.11;100.00;92980.75;2113311;28;20156;-81
2022/01/31 02:51:22;;;;;;;17.67;4.60;;;;;;;-1.10;100.00;92986.75;2104595;28;20020;-82
2022/01/31 02:52:26;;;;;;;9.07;4.30;;;;;;;-1.18;100.00;92991.09;2105025;28;20024;-81
2022/01/31 02:53:30;;;;;;;19.88;4.93;;;;;;;-1.00;100.00;92991.44;2108704;27;20044;-81
2022/01/31 02:54:32;;;;;;;21.40;4.80;;;;;;;-1.04;100.00;92993.25;2113412;28;20552;-80
2022/01/31 02:55:33;;;;;;;13.85;4.93;;;;;;;-1.05;100.00;92989.13;2104688;28;20096;-82
2022/01/31 02:56:34;;;;;;;19.60;6.07;;;;;;;-1.04;100.00;92985.38;2112922;27;20058;-82
2022/01/31 02:57:35;;;;;;;12.75;4.53;;;;;;;-0.97;100.00;92989.97;2126188;27;20114;-82
2022/01/31 02:58:36;;;;;;;15.05;4.70;;;;;;;-0.83;100.00;92982.41;2121307;27;20019;-83
2022/01/31 02:59:37;;;;;;;14.95;4.75;;;;;;;-0.88;100.00;92982.66;2112846;28;20026;-82
2022/01/31 03:00:38;;;;;;;12.98;4.95;;;;;;;-0.96;100.00;92992.28;2116175;28;20065;-81
2022/01/31 03:01:39;;;;;;;15.38;4.97;;;;;;;-0.90;100.00;92995.38;2109589;27;20452;-81
2022/01/31 03:02:40;;;;;;;12.95;4.90;;;;;;;-0.99;100.00;93002.69;2121506;27;20046;-80
2022/01/31 03:03:41;;;;;;;12.88;5.07;;;;;;;-1.07;100.00;92997.31;2121256;27;20066;-80
2022/01/31 03:04:42;;;;;;;14.02;4.90;;;;;;;-1.11;100.00;92982.59;2112773;28;20115;-84
2022/01/31 03:05:43;;;;;;;15.82;4.47;;;;;;;-0.99;100.00;92976.47;2127042;27;20019;-83
2022/01/31 03:06:53;;;;;;;11.00;5.25;;;;;;;-0.68;100.00;92952.69;2121132;27;20047;-83
2022/01/31 03:07:54;;;;;;;14.65;5.47;;;;;;;-0.91;100.00;92947.41;2107189;28;20028;-79
2022/01/31 03:08:55;;;;;;;13.23;4.70;;;;;;;-1.04;100.00;92943.41;2096114;28;20028;-83
2022/01/31 03:09:56;;;;;;;22.42;5.72;;;;;;;-1.20;100.00;92946.09;2104180;28;20445;-82
2022/01/31 03:10:57;;;;;;;16.40;5.10;;;;;;;-1.28;100.00;92942.56;2107851;28;20040;-83
2022/01/31 03:11:59;;;;;;;12.80;4.82;;;;;;;-1.35;100.00;92947.69;2112713;27;20492;-81
2022/01/31 03:13:00;;;;;;;15.63;5.07;;;;;;;-1.14;100.00;92942.13;2112953;28;20028;-82
2022/01/31 03:14:02;;;;;;;11.60;5.03;;;;;;;-1.30;100.00;92936.94;2113218;27;20400;-81
2022/01/31 03:15:03;;;;;;;14.90;5.65;;;;;;;-1.36;100.00;92937.53;2112691;28;20028;-80
2022/01/31 03:16:05;;;;;;;18.83;5.68;;;;;;;-1.39;100.00;92933.75;2104515;28;20221;-84
2022/01/31 03:17:06;;;;;;;10.65;4.72;;;;;;;-1.31;100.00;92938.03;2108970;28;20032;-81
2022/01/31 03:18:07;;;;;;;18.40;6.00;;;;;;;-1.22;100.00;92932.59;2104345;28;20562;-84
2022/01/31 03:19:08;;;;;;;21.20;5.18;;;;;;;-1.31;100.00;92943.28;2104380;28;20115;-82
2022/01/31 03:20:10;;;;;;;15.65;5.15;;;;;;;-1.20;100.00;92940.09;2111149;27;20115;-82
2022/01/31 03:21:11;;;;;;;17.08;5.18;;;;;;;-1.23;100.00;92953.88;2121041;27;20041;-80
2022/01/31 03:22:12;;;;;;;17.13;6.22;;;;;;;-0.97;100.00;92932.28;2115124;28;20366;-81
2022/01/31 03:23:13;;;;;;;21.83;5.50;;;;;;;-1.15;100.00;92924.84;2104835;28;20380;-83
2022/01/31 03:24:14;;;;;;;21.48;5.47;;;;;;;-1.24;100.00;92921.66;2096660;28;20385;-86
2022/01/31 03:25:17;;;;;;;10.15;4.72;;;;;;;-1.29;100.00;92911.47;2096651;28;20036;-81
2022/01/31 03:26:18;;;;;;;18.15;5.53;;;;;;;-1.33;100.00;92908.00;2114438;28;20058;-82
2022/01/31 03:27:20;;;;;;;21.15;5.97;;;;;;;-1.40;100.00;92913.13;2098481;28;20617;-81
2022/01/31 03:28:21;;;;;;;18.02;5.25;;;;;;;-1.41;100.00;92904.50;2114160;27;20031;-81
2022/01/31 03:29:22;;;;;;;17.52;5.72;;;;;;;-1.39;100.00;92891.81;2106768;28;20384;-81
2022/01/31 03:30:23;;;;;;;11.95;4.80;;;;;;;-1.11;100.00;92891.56;2105877;27;20079;-81
2022/01/31 03:31:25;;;;;;;21.70;6.53;;;;;;;-1.21;100.00;92876.41;2120083;27;20027;-81
2022/01/31 03:32:26;;;;;;;22.13;5.47;;;;;;;-1.25;100.00;92886.06;2115335;28;20062;-83
2022/01/31 03:33:27;;;;;;;18.13;6.00;;;;;;;-1.23;100.00;92894.34;2106645;28;20035;-84
2022/01/31 03:34:27;;;;;;;22.20;6.00;;;;;;;-1.29;100.00;92896.50;2098315;28;20051;-81
2022/01/31 03:35:28;;;;;;;25.23;6.30;;;;;;;-1.38;100.00;92889.94;2098235;28;20035;-80
2022/01/31 03:36:29;;;;;;;14.38;6.03;;;;;;;-1.38;100.00;92880.22;2090042;28;20119;-84
2022/01/31 03:37:31;;;;;;;20.98;5.18;;;;;;;-1.24;100.00;92874.47;2094270;28;20024;-82
2022/01/31 03:38:32;;;;;;;19.15;6.03;;;;;;;-1.19;100.00;92863.69;2098361;28;20051;-81
2022/01/31 03:39:33;;;;;;;20.75;5.75;;;;;;;-1.37;100.00;92844.28;2115428;28;20020;-85
2022/01/31 03:40:34;;;;;;;21.30;5.00;;;;;;;-1.22;100.00;92840.81;2115356;28;20039;-80
2022/01/31 03:41:35;;;;;;;23.70;5.28;;;;;;;-0.95;100.00;92854.00;2115372;27;20023;-82
2022/01/31 03:42:38;;;;;;;13.75;5.00;;;;;;;-0.83;100.00;92845.97;2107010;28;20024;-80
2022/01/31 03:43:39;;;;;;;15.00;5.18;;;;;;;-0.96;100.00;92840.13;2106847;28;20036;-82
2022/01/31 03:44:42;;;;;;;16.80;5.15;;;;;;;-0.97;100.00;92840.47;2090742;28;20033;-80
2022/01/31 03:45:43;;;;;;;17.05;5.45;;;;;;;-0.95;100.00;92841.66;2099191;28;20047;-81
2022/01/31 03:46:45;;;;;;;22.40;5.25;;;;;;;-0.97;100.00;92829.97;2121140;27;20030;-81
2022/01/31 03:47:46;;;;;;;23.50;4.75;;;;;;;-1.00;100.00;92835.94;2115451;28;20054;-83
2022/01/31 03:48:48;;;;;;;25.70;7.10;;;;;;;-1.16;100.00;92834.16;2098638;28;20497;-84
2022/01/31 03:49:50;;;;;;;18.77;5.75;;;;;;;-1.15;100.00;92827.81;2101304;28;21841;-82
2022/01/31 03:50:51;;;;;;;19.17;5.07;;;;;;;-1.03;100.00;92826.91;2098858;28;20025;-81
2022/01/31 03:51:52;;;;;;;24.90;5.50;;;;;;;-0.86;100.00;92823.81;2098378;28;20083;-81
2022/01/31 03:52:53;;;;;;;27.42;5.72;;;;;;;-0.99;100.00;92819.09;2106758;28;20361;-83
2022/01/31 03:53:54;;;;;;;10.65;4.57;;;;;;;-1.14;100.00;92807.59;2115328;28;20051;-82
2022/01/31 03:54:56;;;;;;;19.85;5.25;;;;;;;-1.31;100.00;92795.72;2107016;28;20035;-82
2022/01/31 03:55:57;;;;;;;19.45;5.38;;;;;;;-1.47;100.00;92784.56;2106868;28;20032;-81
2022/01/31 03:56:58;;;;;;;15.25;5.60;;;;;;;-1.44;100.00;92782.00;2115134;28;20388;-82
2022/01/31 03:57:59;;;;;;;13.93;4.63;;;;;;;-1.45;100.00;92782.34;2107075;28;20032;-81
2022/01/31 03:59:01;;;;;;;15.55;5.18;;;;;;;-1.49;100.00;92784.91;2106898;28;20032;-81
2022/01/31 04:00:09;;;;;;;14.48;4.45;;;;;;;-1.30;100.00;92789.34;2115194;28;20019;-83
2022/01/31 04:01:10;;;;;;;16.52;5.13;;;;;;;-1.31;100.00;92785.22;2115341;28;20446;-80
2022/01/31 04:02:11;;;;;;;19.35;5.22;;;;;;;-1.28;100.00;92792.38;2115020;28;20062;-84
2022/01/31 04:03:12;;;;;;;10.60;4.75;;;;;;;-1.39;100.00;92796.69;2098568;28;20090;-84
2022/01/31 04:04:13;;;;;;;13.85;4.60;;;;;;;-1.47;100.00;92789.81;2106789;28;20058;-83
2022/01/31 04:05:14;;;;;;;12.65;4.63;;;;;;;-1.38;100.00;92778.00;2106816;28;20016;-82
2022/01/31 04:06:15;;;;;;;17.50;4.75;;;;;;;-1.51;100.00;92768.78;2123462;27;20023;-79
2022/01/31 04:07:16;;;;;;;25.17;6.88;;;;;;;-1.59;100.00;92759.25;2106577;28;20119;-82
2022/01/31 04:08:18;;;;;;;22.65;5.25;;;;;;;-1.53;100.00;92771.00;2098323;28;20073;-85
2022/01/31 04:09:19;;;;;;;20.40;5.05;;;;;;;-1.52;100.00;92773.25;2105657;27;20019;-82
2022/01/31 04:10:20;;;;;;;13.32;3.92;;;;;;;-1.52;100.00;92788.22;2106311;28;20051;-81
2022/01/31 04:11:21;;;;;;;21.48;4.72;;;;;;;-1.08;100.00;92795.72;2098453;28;20055;-81
2022/01/31 04:12:22;;;;;;;15.63;4.55;;;;;;;-1.38;100.00;92790.34;2098125;28;20108;-84
2022/01/31 04:13:26;;;;;;;18.50;4.28;;;;;;;-1.16;100.00;92792.22;2098313;28;20020;-81
2022/01/31 04:14:27;;;;;;;16.48;4.35;;;;;;;-1.20;100.00;92799.25;2099018;28;20051;-82
2022/01/31 04:15:28;;;;;;;15.45;4.07;;;;;;;-1.14;100.00;92807.59;2098585;28;20035;-82
2022/01/31 04:16:29;;;;;;;19.25;3.85;;;;;;;-0.98;100.00;92803.00;2106643;28;20028;-82
2022/01/31 04:17:32;;;;;;;12.15;3.55;;;;;;;-0.81;100.00;92807.00;2098334;28;20031;-80
2022/01/31 04:18:33;;;;;;;11.55;3.47;;;;;;;-0.77;100.00;92789.47;2107340;28;20051;-82
2022/01/31 04:19:42;;;;;;;13.73;4.85;;;;;;;-0.70;100.00;92794.03;2106655;28;20020;-81
2022/01/31 04:20:43;;;;;;;19.67;4.32;;;;;;;-0.60;100.00;92786.34;2100652;28;20017;-82
2022/01/31 04:21:44;;;;;;;15.98;4.03;;;;;;;-0.49;100.00;92791.72;2106638;28;20027;-81
2022/01/31 04:23:30;;;;;;;17.17;4.43;;;;;;;-0.73;100.00;92787.66;2108856;28;20016;-82
2022/01/31 04:24:07;;;;;;;19.38;4.05;;;;;;;-0.58;100.00;92796.47;2105157;27;20124;-80
2022/01/31 04:25:17;;;;;;;19.73;4.80;;;;;;;-0.67;100.00;92795.97;2106205;28;20036;-79
2022/01/31 04:26:18;;;;;;;17.77;4.22;;;;;;;-0.84;100.00;92805.09;2100664;28;20058;-80
2022/01/31 04:27:19;;;;;;;17.75;4.45;;;;;;;-0.89;100.00;92800.88;2098328;28;20024;-83
2022/01/31 04:28:31;;;;;;;21.88;4.13;;;;;;;-0.95;100.00;92789.19;2098309;28;20025;-81
2022/01/31 04:29:35;;;;;;;16.08;4.22;;;;;;;-1.07;100.00;92781.50;2099641;28;20026;-81
2022/01/31 04:30:45;;;;;;;12.68;4.18;;;;;;;-0.87;100.00;92779.56;2107609;27;20023;-85
2022/01/31 04:31:49;;;;;;;15.05;4.00;;;;;;;-0.86;100.00;92789.69;2111539;28;20054;-82
2022/01/31 04:32:50;;;;;;;14.15;3.33;;;;;;;-0.73;100.00;92779.78;2098971;28;20099;-82
2022/01/31 04:33:51;;;;;;;7.45;3.92;;;;;;;-0.79;100.00;92778.53;2104322;28;20020;-82
2022/01/31 04:34:53;;;;;;;19.98;3.92;;;;;;;-0.80;100.00;92769.91;2098632;28;20025;-81
2022/01/31 04:35:54;;;;;;;17.90;3.70;;;;;;;-0.43;100.00;92786.97;2106502;28;20031;-81
2022/01/31 04:36:55;;;;;;;13.98;4.13;;;;;;;-0.56;100.00;92771.41;2101845;28;20423;-80
2022/01/31 04:37:59;;;;;;;14.13;4.20;;;;;;;-0.38;100.00;92771.66;2115162;28;20019;-82
2022/01/31 04:39:01;;;;;;;13.82;3.92;;;;;;;-0.60;100.00;92769.84;2114957;28;20491;-83
2022/01/31 04:40:11;;;;;;;18.48;4.18;;;;;;;-0.64;100.00;92766.41;2098425;28;20036;-80
2022/01/31 04:41:12;;;;;;;12.88;4.00;;;;;;;-0.63;100.00;92768.66;2100474;28;20020;-83
2022/01/31 04:42:13;;;;;;;15.40;3.70;;;;;;;-0.26;100.00;92760.19;2115148;28;20090;-81
2022/01/31 04:43:14;;;;;;;16.45;4.10;;;;;;;-0.17;100.00;92771.16;2123481;27;20019;-84
2022/01/31 04:44:16;;;;;;;18.95;3.97;;;;;;;-0.15;100.00;92766.31;2106418;28;20107;-82
2022/01/31 04:45:17;;;;;;;9.43;3.80;;;;;;;-0.36;100.00;92764.16;2098289;28;20020;-82
2022/01/31 04:46:19;;;;;;;16.88;4.20;;;;;;;-0.39;100.00;92769.38;2097990;28;20527;-83
2022/01/31 04:47:20;;;;;;;15.18;4.10;;;;;;;-0.09;100.00;92764.91;2106898;28;20031;-82